createdAt,value
2022-12-03T00:02:16.566Z,16.63
2022-12-03T00:05:18.248Z,16.15
2022-12-03T00:08:23.323Z,16.65
2022-12-03T00:11:24.910Z,17.90
2022-12-03T00:14:26.555Z,15.80
2022-12-03T00:17:28.154Z,14.47
2022-12-03T00:20:29.742Z,16.50
2022-12-03T00:23:31.312Z,15.95
2022-12-03T00:26:32.905Z,15.63
2022-12-03T00:29:34.648Z,15.80
2022-12-03T00:32:36.239Z,16.98
2022-12-03T00:35:37.789Z,16.10
2022-12-03T00:38:42.433Z,15.43
2022-12-03T00:41:43.982Z,16.08
2022-12-03T00:44:45.548Z,16.85
2022-12-03T00:47:47.113Z,15.63
2022-12-03T00:50:48.704Z,15.48
2022-12-03T00:53:50.288Z,16.65
2022-12-03T00:56:51.872Z,15.38
2022-12-03T00:59:53.456Z,15.63
2022-12-03T01:02:55.054Z,16.48
2022-12-03T01:05:56.610Z,16.40
2022-12-03T01:09:01.571Z,15.83
2022-12-03T01:12:03.253Z,15.80
2022-12-03T01:15:05.872Z,17.23
2022-12-03T01:18:07.522Z,15.82
2022-12-03T01:21:09.098Z,16.17
2022-12-03T01:24:13.869Z,16.45
2022-12-03T01:27:15.477Z,17.17
2022-12-03T01:30:17.083Z,16.60
2022-12-03T01:33:18.709Z,16.25
2022-12-03T01:36:24.200Z,16.50
2022-12-03T01:39:25.716Z,17.50
2022-12-03T01:42:37.957Z,16.80
2022-12-03T01:45:39.498Z,17.38
2022-12-03T01:48:41.111Z,17.23
2022-12-03T01:51:42.708Z,18.20
2022-12-03T01:55:05.641Z,16.42
2022-12-03T01:58:08.590Z,19.38
2022-12-03T02:01:17.975Z,19.63
2022-12-03T02:04:19.672Z,20.53
2022-12-03T02:07:29.297Z,20.98
2022-12-03T02:10:34.993Z,22.05
2022-12-03T02:13:36.702Z,20.80
2022-12-03T02:16:38.369Z,21.92
2022-12-03T02:19:44.148Z,19.80
2022-12-03T02:22:54.546Z,22.40
2022-12-03T02:25:56.167Z,20.88
2022-12-03T02:28:57.733Z,21.40
2022-12-03T02:31:59.404Z,22.90
2022-12-03T02:35:04.584Z,19.87
2022-12-03T02:38:12.729Z,20.50
2022-12-03T02:41:34.796Z,21.92
2022-12-03T02:44:36.381Z,20.43
2022-12-03T02:47:49.767Z,20.42
2022-12-03T02:51:02.718Z,21.23
2022-12-03T02:54:04.328Z,20.60
2022-12-03T02:57:05.923Z,19.95
2022-12-03T03:00:08.762Z,20.45
2022-12-03T03:03:10.408Z,19.35
2022-12-03T03:06:15.019Z,20.13
2022-12-03T03:09:16.657Z,19.75
2022-12-03T03:12:18.224Z,19.10
2022-12-03T03:15:19.962Z,19.73
2022-12-03T03:18:21.530Z,18.33
2022-12-03T03:21:27.277Z,19.02
2022-12-03T03:24:28.825Z,20.23
2022-12-03T03:27:30.400Z,20.20
2022-12-03T03:30:32.634Z,20.17
2022-12-03T03:33:34.291Z,22.10
2022-12-03T03:36:38.612Z,19.43
2022-12-03T03:39:40.186Z,18.10
2022-12-03T03:42:41.859Z,19.38
2022-12-03T03:45:43.563Z,20.97
2022-12-03T03:48:45.290Z,21.30
2022-12-03T03:51:49.939Z,19.75
2022-12-03T03:54:51.780Z,20.77
2022-12-03T03:57:53.678Z,18.15
2022-12-03T04:00:55.285Z,18.58
2022-12-03T04:03:57.533Z,18.38
2022-12-03T04:07:03.098Z,18.30
2022-12-03T04:10:25.192Z,18.73
2022-12-03T04:13:27.036Z,17.58
2022-12-03T04:16:28.760Z,19.47
2022-12-03T04:19:30.411Z,17.17
2022-12-03T04:22:40.731Z,17.58
2022-12-03T04:26:00.927Z,17.48
2022-12-03T04:29:02.548Z,18.13
2022-12-03T04:32:22.883Z,18.63
2022-12-03T04:35:42.491Z,20.05
2022-12-03T04:38:44.126Z,19.00
2022-12-03T04:41:45.731Z,19.75
2022-12-03T04:44:47.288Z,17.10
2022-12-03T04:47:48.958Z,16.90
2022-12-03T04:50:50.757Z,16.95
2022-12-03T04:53:52.333Z,17.95
2022-12-03T04:56:53.949Z,18.08
2022-12-03T04:59:55.560Z,17.38
2022-12-03T05:02:57.177Z,19.30
2022-12-03T05:05:58.840Z,17.10
2022-12-03T05:09:00.398Z,16.67
2022-12-03T05:12:01.986Z,17.17
2022-12-03T05:15:06.269Z,17.38
2022-12-03T05:18:07.860Z,17.57
2022-12-03T05:21:09.456Z,17.80
2022-12-03T05:24:11.086Z,17.52
2022-12-03T05:27:12.727Z,19.42
2022-12-03T05:30:14.684Z,16.38
2022-12-03T05:33:16.554Z,19.63
2022-12-03T05:36:18.533Z,17.60
2022-12-03T05:39:20.131Z,18.80
2022-12-03T05:42:40.020Z,17.42
2022-12-03T05:45:42.579Z,18.30
2022-12-03T05:48:44.317Z,19.23
2022-12-03T05:51:45.967Z,20.55
2022-12-03T05:54:47.570Z,17.15
2022-12-03T05:57:51.933Z,20.67
2022-12-03T06:00:53.517Z,18.95
2022-12-03T06:03:55.192Z,20.23
2022-12-03T06:06:56.884Z,20.40
2022-12-03T06:09:58.507Z,20.30
2022-12-03T06:13:00.982Z,14.05
2022-12-03T06:16:02.722Z,19.63
2022-12-03T06:19:04.375Z,20.63
2022-12-03T06:22:05.996Z,19.30
2022-12-03T06:25:15.446Z,20.23
2022-12-03T06:28:17.037Z,20.25
2022-12-03T06:31:18.692Z,18.75
2022-12-03T06:34:20.478Z,18.17
2022-12-03T06:37:22.143Z,18.67
2022-12-03T06:40:24.869Z,18.20
2022-12-03T06:43:26.448Z,19.55
2022-12-03T06:46:28.124Z,19.67
2022-12-03T06:49:29.748Z,18.37
2022-12-03T06:52:31.346Z,18.77
2022-12-03T06:55:32.920Z,21.52
2022-12-03T06:58:38.302Z,20.13
2022-12-03T07:01:39.985Z,19.83
2022-12-03T07:04:46.096Z,21.52
2022-12-03T07:07:52.447Z,19.38
2022-12-03T07:10:54.410Z,19.63
2022-12-03T07:14:05.126Z,19.98
2022-12-03T07:17:07.339Z,19.83
2022-12-03T07:20:09.240Z,17.77
2022-12-03T07:23:10.817Z,19.17
2022-12-03T07:26:12.566Z,20.13
2022-12-03T07:29:14.207Z,20.83
2022-12-03T07:32:15.822Z,21.50
2022-12-03T07:35:17.520Z,21.75
2022-12-03T07:38:19.138Z,21.38
2022-12-03T07:41:23.957Z,21.47
2022-12-03T07:44:25.789Z,22.17
2022-12-03T07:47:27.354Z,22.42
2022-12-03T07:50:28.919Z,21.93
2022-12-03T07:53:30.578Z,21.17
2022-12-03T07:56:32.205Z,22.67
2022-12-03T07:59:33.826Z,21.98
2022-12-03T08:02:35.548Z,20.90
2022-12-03T08:05:37.251Z,21.13
2022-12-03T08:08:38.951Z,21.38
2022-12-03T08:11:40.826Z,21.17
2022-12-03T08:14:42.535Z,19.98
2022-12-03T08:17:45.556Z,21.30
2022-12-03T08:20:48.794Z,22.13
2022-12-03T08:23:50.422Z,20.73
2022-12-03T08:26:55.313Z,22.08
2022-12-03T08:30:06.628Z,20.65
2022-12-03T08:33:35.724Z,21.10
2022-12-03T08:36:37.319Z,20.67
2022-12-03T08:39:50.566Z,22.55
2022-12-03T08:42:55.330Z,21.27
2022-12-03T08:45:57.267Z,21.30
2022-12-03T08:48:58.920Z,20.05
2022-12-03T08:52:01.522Z,22.63
2022-12-03T08:55:26.648Z,22.98
2022-12-03T08:58:35.507Z,21.35
2022-12-03T09:01:55.789Z,20.80
2022-12-03T09:04:57.387Z,22.75
2022-12-03T09:07:59.043Z,21.57
2022-12-03T09:11:01.285Z,21.50
2022-12-03T09:14:03.702Z,21.58
2022-12-03T09:17:05.405Z,23.67
2022-12-03T09:20:07.581Z,22.07
2022-12-03T09:23:09.190Z,22.63
2022-12-03T09:26:10.740Z,22.95
2022-12-03T09:29:15.328Z,22.00
2022-12-03T09:32:18.828Z,20.23
2022-12-03T09:35:20.800Z,22.13
2022-12-03T09:38:22.371Z,22.60
2022-12-03T09:41:24.076Z,22.33
2022-12-03T09:44:32.095Z,20.60
2022-12-03T09:47:33.732Z,21.42
2022-12-03T09:50:35.388Z,21.30
2022-12-03T09:53:41.223Z,21.05
2022-12-03T09:56:43.054Z,21.02
2022-12-03T09:59:47.964Z,21.95
2022-12-03T10:02:49.998Z,22.80
2022-12-03T10:05:51.661Z,21.08
2022-12-03T10:08:54.592Z,21.35
2022-12-03T10:11:57.404Z,22.55
2022-12-03T10:15:02.024Z,22.77
2022-12-03T10:18:22.057Z,22.40
2022-12-03T10:21:36.288Z,22.67
2022-12-03T10:24:38.230Z,23.08
2022-12-03T10:27:43.000Z,22.40
2022-12-03T10:30:54.291Z,22.52
2022-12-03T10:33:57.994Z,22.45
2022-12-03T10:37:19.196Z,22.00
2022-12-03T10:40:25.541Z,21.27
2022-12-03T10:43:30.413Z,22.35
2022-12-03T10:46:32.119Z,22.42
2022-12-03T10:49:33.840Z,23.40
2022-12-03T10:52:35.427Z,22.60
2022-12-03T10:55:38.818Z,21.98
2022-12-03T10:58:44.510Z,22.23
2022-12-03T11:01:46.257Z,21.58
2022-12-03T11:04:48.101Z,21.00
2022-12-03T11:07:49.743Z,20.27
2022-12-03T11:11:05.444Z,21.15
2022-12-03T11:14:10.242Z,20.25
2022-12-03T11:17:11.908Z,21.45
2022-12-03T11:20:25.710Z,20.85
2022-12-03T11:23:46.128Z,21.52
2022-12-03T11:26:50.816Z,21.30
2022-12-03T11:30:00.390Z,20.83
2022-12-03T11:33:04.961Z,21.23
2022-12-03T11:36:06.553Z,21.10
2022-12-03T11:39:08.139Z,22.58
2022-12-03T11:42:25.424Z,22.50
2022-12-03T11:45:41.439Z,22.38
2022-12-03T11:48:44.408Z,22.63
2022-12-03T11:51:46.015Z,21.10
2022-12-03T11:54:50.264Z,23.27
2022-12-03T11:58:00.530Z,22.48
2022-12-03T12:01:06.285Z,23.45
2022-12-03T12:04:26.008Z,22.75
2022-12-03T12:07:37.635Z,23.13
2022-12-03T12:10:47.294Z,23.63
2022-12-03T12:13:54.661Z,22.70
2022-12-03T12:16:58.446Z,22.38
2022-12-03T12:20:12.020Z,23.38
2022-12-03T12:23:27.847Z,23.75
2022-12-03T12:26:29.422Z,24.35
2022-12-03T12:29:31.015Z,24.83
2022-12-03T12:33:05.935Z,22.92
2022-12-03T12:36:14.450Z,24.45
2022-12-03T12:39:16.126Z,24.92
2022-12-03T12:42:29.274Z,23.57
2022-12-03T12:45:34.097Z,22.23
2022-12-03T12:48:39.227Z,22.45
2022-12-03T12:51:44.967Z,24.70
2022-12-03T12:54:46.518Z,24.50
2022-12-03T12:57:48.146Z,24.00
2022-12-03T13:00:59.505Z,23.92
2022-12-03T13:04:02.286Z,25.37
2022-12-03T13:07:03.934Z,22.80
2022-12-03T13:10:36.652Z,23.95
2022-12-03T13:13:43.551Z,22.80
2022-12-03T13:16:47.173Z,25.03
2022-12-03T13:20:02.002Z,22.90
2022-12-03T13:23:34.696Z,24.90
2022-12-03T13:26:39.463Z,23.27
2022-12-03T13:29:41.200Z,23.50
2022-12-03T13:32:46.868Z,25.35
2022-12-03T13:35:48.497Z,25.42
2022-12-03T13:38:50.079Z,25.33
2022-12-03T13:42:10.184Z,24.65
2022-12-03T13:45:17.341Z,24.92
2022-12-03T13:48:25.676Z,24.88
2022-12-03T13:51:27.811Z,25.80
2022-12-03T13:54:29.414Z,25.90
2022-12-03T13:57:31.011Z,25.80
2022-12-03T14:00:32.620Z,25.88
2022-12-03T14:03:37.502Z,26.85
2022-12-03T14:06:39.525Z,27.15
2022-12-03T14:09:41.174Z,24.73
2022-12-03T14:12:42.757Z,26.10
2022-12-03T14:15:44.368Z,26.27
2022-12-03T14:18:49.788Z,25.92
2022-12-03T14:21:51.404Z,27.38
2022-12-03T14:24:53.165Z,27.42
2022-12-03T14:27:54.777Z,25.52
2022-12-03T14:30:56.386Z,26.77
2022-12-03T14:34:01.586Z,27.30
2022-12-03T14:37:03.310Z,26.67
2022-12-03T14:40:07.105Z,26.23
2022-12-03T14:43:08.774Z,26.02
2022-12-03T14:46:10.435Z,26.03
2022-12-03T14:49:12.138Z,26.50
2022-12-03T14:52:13.764Z,23.67
2022-12-03T14:55:15.360Z,26.02
2022-12-03T14:58:16.989Z,25.67
2022-12-03T15:01:18.648Z,24.42
2022-12-03T15:04:24.718Z,26.65
2022-12-03T15:07:26.386Z,25.50
2022-12-03T15:10:28.019Z,25.60
2022-12-03T15:13:29.587Z,26.63
2022-12-03T15:16:31.223Z,26.23
2022-12-03T15:19:32.859Z,26.15
2022-12-03T15:22:34.467Z,27.58
2022-12-03T15:25:36.047Z,26.38
2022-12-03T15:28:37.646Z,27.90
2022-12-03T15:31:39.398Z,26.27
2022-12-03T15:34:41.012Z,27.40
2022-12-03T15:37:46.687Z,28.30
2022-12-03T15:40:48.277Z,27.73
2022-12-03T15:43:53.011Z,26.42
2022-12-03T15:46:54.620Z,27.50
2022-12-03T15:49:56.462Z,26.92
2022-12-03T15:53:01.638Z,26.17
2022-12-03T15:56:03.326Z,26.00
2022-12-03T15:59:04.908Z,25.90
2022-12-03T16:02:06.740Z,25.55
2022-12-03T16:05:14.716Z,24.90
2022-12-03T16:08:16.366Z,26.25
2022-12-03T16:11:17.972Z,25.40
2022-12-03T16:14:20.450Z,25.33
2022-12-03T16:17:22.084Z,28.00
2022-12-03T16:20:23.862Z,26.92
2022-12-03T16:23:25.880Z,27.80
2022-12-03T16:26:27.883Z,27.98
2022-12-03T16:29:29.512Z,27.67
2022-12-03T16:32:31.147Z,25.73
2022-12-03T16:35:35.610Z,24.43
2022-12-03T16:38:37.230Z,26.77
2022-12-03T16:41:39.499Z,29.17
2022-12-03T16:44:58.131Z,27.65
2022-12-03T16:48:00.967Z,27.90
2022-12-03T16:51:06.764Z,25.45
2022-12-03T16:54:08.336Z,25.65
2022-12-03T16:57:09.982Z,27.83
2022-12-03T17:00:12.032Z,25.50
2022-12-03T17:03:13.715Z,25.27
2022-12-03T17:06:19.933Z,25.52
2022-12-03T17:09:21.514Z,23.60
2022-12-03T17:12:23.114Z,23.85
2022-12-03T17:15:24.684Z,24.15
2022-12-03T17:18:26.516Z,24.15
2022-12-03T17:21:32.129Z,23.85
2022-12-03T17:24:36.368Z,23.95
2022-12-03T17:27:43.465Z,22.95
2022-12-03T17:30:47.107Z,24.33
2022-12-03T17:33:48.754Z,24.95
2022-12-03T17:36:50.308Z,23.52
2022-12-03T17:39:52.235Z,25.38
2022-12-03T17:42:54.107Z,25.13
2022-12-03T17:45:55.707Z,23.13
2022-12-03T17:48:57.310Z,25.33
2022-12-03T17:52:00.816Z,24.23
2022-12-03T17:55:11.904Z,25.33
2022-12-03T17:58:16.066Z,25.48
2022-12-03T18:01:17.694Z,28.55
2022-12-03T18:04:19.462Z,26.33
2022-12-03T18:07:21.050Z,26.80
2022-12-03T18:10:27.123Z,27.48
2022-12-03T18:13:28.668Z,27.50
2022-12-03T18:16:30.355Z,27.08
2022-12-03T18:19:31.947Z,25.15
2022-12-03T18:22:37.451Z,27.23
2022-12-03T18:25:42.979Z,28.15
2022-12-03T18:28:44.550Z,28.25
2022-12-03T18:31:46.252Z,25.90
2022-12-03T18:34:48.036Z,26.27
2022-12-03T18:37:55.132Z,25.48
2022-12-03T18:40:56.756Z,27.50
2022-12-03T18:43:58.377Z,27.57
2022-12-03T18:47:00.109Z,26.25
2022-12-03T18:50:01.797Z,27.75
2022-12-03T18:53:06.500Z,26.73
2022-12-03T18:56:08.173Z,25.25
2022-12-03T18:59:09.862Z,26.67
2022-12-03T19:02:32.497Z,26.05
2022-12-03T19:05:36.999Z,25.10
2022-12-03T19:08:41.281Z,24.65
2022-12-03T19:11:42.899Z,26.98
2022-12-03T19:14:44.596Z,27.63
2022-12-03T19:17:49.605Z,26.42
2022-12-03T19:20:51.279Z,26.67
2022-12-03T19:24:22.819Z,26.15
2022-12-03T19:27:14.446Z,26.80
2022-12-03T19:30:16.289Z,27.15
2022-12-03T19:33:18.275Z,24.67
2022-12-03T19:36:27.744Z,24.83
2022-12-03T19:39:29.303Z,26.25
2022-12-03T19:42:31.275Z,26.90
2022-12-03T19:45:32.898Z,27.27
2022-12-03T19:48:34.999Z,26.58
2022-12-03T19:51:36.774Z,27.00
2022-12-03T19:54:38.375Z,26.33
2022-12-03T19:57:39.990Z,25.00
2022-12-03T20:00:41.550Z,26.98
2022-12-03T20:03:44.607Z,26.83
2022-12-03T20:06:47.546Z,27.07
2022-12-03T20:09:52.273Z,27.73
2022-12-03T20:12:57.474Z,28.13
2022-12-03T20:16:03.325Z,28.80
2022-12-03T20:19:06.163Z,25.92
2022-12-03T20:22:07.847Z,27.15
2022-12-03T20:25:16.853Z,27.90
2022-12-03T20:28:21.463Z,28.57
2022-12-03T20:31:24.987Z,29.45
2022-12-03T20:34:26.635Z,30.05
2022-12-03T20:37:28.235Z,29.83
2022-12-03T20:40:29.813Z,30.23
2022-12-03T20:43:34.618Z,27.90
2022-12-03T20:46:36.410Z,30.13
2022-12-03T20:49:39.120Z,29.58
2022-12-03T20:52:48.457Z,30.00
2022-12-03T20:56:03.869Z,28.90
2022-12-03T20:59:06.887Z,28.27
2022-12-03T21:02:09.703Z,27.75
2022-12-03T21:05:11.418Z,28.15
2022-12-03T21:08:13.101Z,30.95
2022-12-03T21:11:24.205Z,31.65
2022-12-03T21:14:26.161Z,29.65
2022-12-03T21:17:27.791Z,28.95
2022-12-03T21:20:29.369Z,30.10
2022-12-03T21:23:31.221Z,31.13
2022-12-03T21:26:35.636Z,28.40
2022-12-03T21:29:37.340Z,30.10
2022-12-03T21:32:38.883Z,29.55
2022-12-03T21:35:40.452Z,28.83
2022-12-03T21:38:42.110Z,29.45
2022-12-03T21:42:19.199Z,28.30
2022-12-03T21:45:05.930Z,29.60
2022-12-03T21:48:07.533Z,28.73
2022-12-03T21:51:11.166Z,28.07
2022-12-03T21:54:12.730Z,27.88
2022-12-03T21:57:14.303Z,28.48
2022-12-03T22:00:16.207Z,27.10
2022-12-03T22:03:17.905Z,29.40
2022-12-03T22:06:19.724Z,29.05
2022-12-03T22:09:26.293Z,29.30
2022-12-03T22:12:28.397Z,28.08
2022-12-03T22:15:31.186Z,27.52
2022-12-03T22:18:32.962Z,28.83
2022-12-03T22:21:35.669Z,27.77
2022-12-03T22:24:37.298Z,27.67
2022-12-03T22:27:41.771Z,28.00
2022-12-03T22:30:43.371Z,29.23
2022-12-03T22:33:48.309Z,27.15
2022-12-03T22:36:50.175Z,29.17
2022-12-03T22:39:51.783Z,29.50
2022-12-03T22:42:56.742Z,27.27
2022-12-03T22:45:58.371Z,28.52
2022-12-03T22:49:06.425Z,27.90
2022-12-03T22:52:09.024Z,29.13
2022-12-03T22:55:10.605Z,28.38
2022-12-03T22:58:12.230Z,28.90
2022-12-03T23:01:34.282Z,28.27
2022-12-03T23:04:35.891Z,28.42
2022-12-03T23:07:37.578Z,30.15
2022-12-03T23:10:47.719Z,29.35
2022-12-03T23:13:52.787Z,29.77
2022-12-03T23:16:54.361Z,30.13
2022-12-03T23:19:56.245Z,30.50
2022-12-03T23:22:58.117Z,30.23
2022-12-03T23:26:09.373Z,30.80
2022-12-03T23:29:14.047Z,30.00
2022-12-03T23:32:15.943Z,29.38
2022-12-03T23:35:17.653Z,29.42
2022-12-03T23:38:19.419Z,30.48
2022-12-03T23:41:21.674Z,30.92
2022-12-03T23:44:23.264Z,29.73
2022-12-03T23:47:24.822Z,29.60
2022-12-03T23:50:26.816Z,30.90
2022-12-03T23:53:29.215Z,30.10
2022-12-03T23:56:31.011Z,30.08
2022-12-03T23:59:32.705Z,30.88
